Time;durP1;ratioP1;P1;durP2;ratioP2;P2;SDS_P1;SDS_P2;PMS_P1;PMS_P2;Temp;Humidity;BMP_temperature;BMP_pressure;BME280_temperature;BME280_humidity;BME280_pressure;Samples;Min_cycle;Max_cycle;Signal;HPM_P1;HPM_P2
2021/07/13 06:53:37;;;;;;;;;;;;;;;;;;5702920;22;19970;-61
2021/07/13 06:56:03;;;;;;;;;;;;;;;;;;5055885;28;19959;-61
2021/07/13 06:58:29;;;;;;;;;;;;;;;;;;5053786;28;19909;-60
2021/07/13 07:00:55;;;;;;;;;;;;;;;;;;5050921;28;20019;-61
2021/07/13 07:03:21;;;;;;;;;;;;;;;;;;5055354;28;19915;-60
2021/07/13 07:05:47;;;;;;;;;;;;;;;;;;5055691;28;19904;-60
2021/07/13 07:08:13;;;;;;;;;;;;;;;;;;5056259;28;19916;-60
2021/07/13 07:10:39;;;;;;;;;;;;;;;;;;5044820;28;19941;-61
2021/07/13 07:13:05;;;;;;;;;;;;;;;;;;5051340;28;20005;-59
2021/07/13 07:16:33;;;;;;;;;;;;;;;;;;5094682;27;1988985;-55
2021/07/13 07:18:59;;;;;;;;;;;;;;;;;;5129816;27;20644;-53
2021/07/13 07:21:25;;;;;;;;;;;;;;;;;;5131369;27;19939;-54
2021/07/13 07:23:51;;;;;;;;;;;;;;;;;;5136284;27;19919;-54
2021/07/13 07:26:17;;;;;;;;;;;;;;;;;;5127995;27;19962;-59
2021/07/13 07:28:43;;;;;;;;;;;;;;;;;;5143220;27;19968;-53
2021/07/13 07:31:09;;;;;;;;;;;;;;;;;;5116678;27;19919;-49
2021/07/13 07:33:35;;;;;;;;;;;;;;;;;;5131279;27;20378;-59
2021/07/13 07:36:02;;;;;;;;;;;;;;;;;;5137149;27;19932;-56
2021/07/13 07:38:28;;;;;;;;;;;;;;;;;;5137551;27;19977;-50
2021/07/13 07:40:53;;;;;;;;;;;;;;;;;;5142442;27;19916;-54
2021/07/13 07:43:19;;;;;;;;;;;;;;;;;;5146777;27;21218;-51
2021/07/13 07:45:45;;;;;;;;;;;;;;;;;;5148273;27;19916;-54
2021/07/13 07:48:11;;;;;;;;;;;;;;;;;;5127589;27;19915;-52
2021/07/13 07:50:37;;;;;;;;;;;;;;;;;;5136196;27;19912;-53
2021/07/13 07:53:03;;;;;;;;;;;;;;;;;;5131506;27;19999;-51
2021/07/13 07:55:29;;;;;;;;;;;;;;;;;;5126548;27;20359;-51
2021/07/13 07:57:55;;;;;;;;;;;;;;;;;;5126509;27;20371;-46
2021/07/13 08:00:21;;;;;;;;;;;;;;;;;;5140736;27;19998;-47
2021/07/13 08:02:47;;;;;;;;;;;;;;;;;;5128987;27;19916;-49
2021/07/13 08:05:16;;;;;;;;;;;;;;;;;;5138529;27;19958;-48
2021/07/13 08:07:42;;;;;;;;;;;;;;;;;;5140665;27;20287;-47
2021/07/13 08:10:08;;;;;;;;;;;;;;;;;;5146575;27;19908;-48
2021/07/13 08:12:34;;;;;;;;;;;;;;;;;;5133223;27;19951;-52
2021/07/13 08:15:00;;;;;;;;;;;;;;;;;;5143592;27;19987;-51
2021/07/13 08:17:26;;;;;;;;;;;;;;;;;;5126381;27;20833;-49
2021/07/13 08:19:52;;;;;;;;;;;;;;;;;;5138224;27;19907;-47
2021/07/13 08:22:18;;;;;;;;;;;;;;;;;;5136756;27;19926;-49
2021/07/13 08:24:44;;;;;;;;;;;;;;;;;;5146396;27;20575;-50
2021/07/13 08:27:12;;;;;;;;;;;;;;;;;;5136842;27;20301;-50
2021/07/13 08:29:38;;;;;;;;;;;;;;;;;;5126815;27;19956;-49
2021/07/13 08:32:04;;;;;;;;;;;;;;;;;;5119088;27;19923;-48
2021/07/13 08:34:30;;;;;;;;;;;;;;;;;;5114603;27;20020;-49
2021/07/13 08:36:56;;;;;;;;;;;;;;;;;;5132453;27;19961;-60
2021/07/13 08:39:22;;;;;;;;;;;;;;;;;;5117323;27;19943;-53
2021/07/13 08:41:48;;;;;;;;;;;;;;;;;;5118880;27;19968;-48
2021/07/13 08:44:14;;;;;;;;;;;;;;;;;;5131057;27;19907;-51
2021/07/13 08:46:40;;;;;;;;;;;;;;;;;;5136783;27;19911;-52
2021/07/13 08:49:06;;;;;;;;;;;;;;;;;;5107117;27;20316;-50
2021/07/13 08:51:32;;;;;;;;;;;;;;;;;;5112806;27;19915;-48
2021/07/13 08:53:58;;;;;;;;;;;;;;;;;;5100946;27;19922;-48
2021/07/13 08:56:24;;;;;;;;;;;;;;;;;;5102092;28;19924;-50
2021/07/13 08:58:50;;;;;;;;;;;;;;;;;;5124672;27;19958;-52
2021/07/13 09:01:16;;;;;;;;;;;;;;;;;;5130115;27;20051;-50
2021/07/13 09:03:42;;;;;;;;;;;;;;;;;;5129030;27;19939;-48
2021/07/13 09:06:08;;;;;;;;;;;;;;;;;;5120843;27;19973;-48
2021/07/13 09:08:37;;;;;;;;;;;;;;;;;;5112098;28;19907;-47
2021/07/13 09:11:03;;;;;;;;;;;;;;;;;;5111640;28;19915;-48
2021/07/13 09:13:34;;;;;;;;;;;;;;;;;;5117468;27;19919;-49
2021/07/13 09:16:00;;;;;;;;;;;;;;;;;;5107535;27;19971;-48
2021/07/13 09:18:26;;;;;;;;;;;;;;;;;;5125645;27;20248;-48
2021/07/13 09:20:52;;;;;;;;;;;;;;;;;;5130995;27;19936;-54
2021/07/13 09:23:18;;;;;;;;;;;;;;;;;;5113714;27;19955;-53
2021/07/13 09:25:50;;;;;;;;;;;;;;;;;;5099785;27;20329;-45
2021/07/13 09:28:16;;;;;;;;;;;;;;;;;;5122512;27;19939;-47
2021/07/13 09:30:42;;;;;;;;;;;;;;;;;;5104331;28;19912;-50
2021/07/13 09:33:08;;;;;;;;;;;;;;;;;;5120295;27;19948;-48
2021/07/13 09:35:36;;;;;;;;;;;;;;;;;;5119610;27;20005;-50
2021/07/13 09:38:02;;;;;;;;;;;;;;;;;;5106937;28;19916;-49
2021/07/13 09:40:28;;;;;;;;;;;;;;;;;;5122903;27;20381;-47
2021/07/13 09:42:55;;;;;;;;;;;;;;;;;;5126222;27;19991;-47
2021/07/13 09:45:21;;;;;;;;;;;;;;;;;;5105818;27;19915;-48
2021/07/13 09:47:47;;;;;;;;;;;;;;;;;;5111980;27;20456;-50
2021/07/13 09:50:13;;;;;;;;;;;;;;;;;;5092631;28;19933;-48
2021/07/13 09:52:39;;;;;;;;;;;;;;;;;;5130945;27;19907;-46
2021/07/13 09:55:05;;;;;;;;;;;;;;;;;;5099683;28;19962;-48
2021/07/13 09:57:31;;;;;;;;;;;;;;;;;;5128597;27;19908;-53
2021/07/13 09:59:57;;;;;;;;;;;;;;;;;;5127674;27;20071;-53
2021/07/13 10:02:25;;;;;;;;;;;;;;;;;;5112097;27;20324;-46
2021/07/13 10:04:53;;;;;;;;;;;;;;;;;;5118313;27;19907;-47
2021/07/13 10:07:19;;;;;;;;;;;;;;;;;;5115070;27;19954;-49
2021/07/13 10:09:45;;;;;;;;;;;;;;;;;;5120612;27;19964;-47
2021/07/13 10:12:12;;;;;;;;;;;;;;;;;;5129876;27;19995;-51
2021/07/13 10:14:38;;;;;;;;;;;;;;;;;;5125183;27;19932;-48
2021/07/13 10:17:04;;;;;;;;;;;;;;;;;;5129973;27;20566;-50
2021/07/13 10:19:30;;;;;;;;;;;;;;;;;;5124698;27;19998;-47
2021/07/13 10:21:56;;;;;;;;;;;;;;;;;;5127636;27;20228;-46
2021/07/13 10:24:22;;;;;;;;;;;;;;;;;;5126779;27;19973;-48
2021/07/13 10:26:48;;;;;;;;;;;;;;;;;;5128383;27;20386;-47
2021/07/13 10:29:14;;;;;;;;;;;;;;;;;;5129613;27;19916;-52
2021/07/13 10:31:40;;;;;;;;;;;;;;;;;;5118013;27;20313;-51
2021/07/13 10:34:06;;;;;;;;;;;;;;;;;;5100123;27;19959;-46
2021/07/13 10:36:32;;;;;;;;;;;;;;;;;;5119236;27;19946;-46
2021/07/13 10:38:58;;;;;;;;;;;;;;;;;;5113847;27;19919;-49
2021/07/13 10:41:24;;;;;;;;;;;;;;;;;;5109814;28;19912;-45
2021/07/13 10:43:50;;;;;;;;;;;;;;;;;;5129106;27;19915;-46
2021/07/13 10:46:16;;;;;;;;;;;;;;;;;;5130237;27;20294;-49
2021/07/13 10:48:42;;;;;;;;;;;;;;;;;;5123533;27;19915;-49
2021/07/13 10:51:08;;;;;;;;;;;;;;;;;;5090674;28;19995;-45
2021/07/13 10:53:35;;;;;;;;;;;;;;;;;;5123133;27;20389;-46
2021/07/13 10:56:01;;;;;;;;;;;;;;;;;;5116198;27;19926;-44
2021/07/13 10:58:27;;;;;;;;;;;;;;;;;;5128842;27;19923;-52
2021/07/13 11:00:54;;;;;;;;;;;;;;;;;;5128806;27;19912;-51
2021/07/13 11:03:20;;;;;;;;;;;;;;;;;;5115326;27;20329;-45
2021/07/13 11:05:46;;;;;;;;;;;;;;;;;;5110920;28;20013;-49
2021/07/13 11:08:12;;;;;;;;;;;;;;;;;;5109773;28;20347;-47
2021/07/13 11:10:39;;;;;;;;;;;;;;;;;;5127888;27;20388;-50
2021/07/13 11:13:05;;;;;;;;;;;;;;;;;;5129363;27;19908;-50
2021/07/13 11:15:31;;;;;;;;;;;;;;;;;;5127599;27;20296;-49
2021/07/13 11:17:57;;;;;;;;;;;;;;;;;;5111485;28;19919;-48
2021/07/13 11:20:23;;;;;;;;;;;;;;;;;;5127724;28;19998;-48
2021/07/13 11:22:49;;;;;;;;;;;;;;;;;;5109202;28;19908;-49
2021/07/13 11:25:15;;;;;;;;;;;;;;;;;;5108742;28;19965;-53
2021/07/13 11:27:40;;;;;;;;;;;;;;;;;;5108963;28;20340;-49
2021/07/13 11:30:06;;;;;;;;;;;;;;;;;;5112429;27;20297;-49
2021/07/13 11:32:32;;;;;;;;;;;;;;;;;;5108434;28;20324;-45
2021/07/13 11:34:58;;;;;;;;;;;;;;;;;;5115990;28;19942;-48
2021/07/13 11:37:24;;;;;;;;;;;;;;;;;;5108948;28;20352;-47
2021/07/13 11:39:50;;;;;;;;;;;;;;;;;;5128662;28;19956;-52
2021/07/13 11:42:17;;;;;;;;;;;;;;;;;;5116390;28;19998;-50
2021/07/13 11:44:43;;;;;;;;;;;;;;;;;;5122107;28;19915;-49
2021/07/13 11:47:09;;;;;;;;;;;;;;;;;;5108939;28;19912;-49
2021/07/13 11:49:35;;;;;;;;;;;;;;;;;;5129608;28;19908;-50
2021/07/13 11:52:01;;;;;;;;;;;;;;;;;;5115330;28;20285;-50
2021/07/13 11:54:27;;;;;;;;;;;;;;;;;;5109227;28;20016;-47
2021/07/13 11:56:53;;;;;;;;;;;;;;;;;;5110313;28;20406;-45
2021/07/13 11:59:19;;;;;;;;;;;;;;;;;;5111766;28;20292;-48
2021/07/13 12:01:47;;;;;;;;;;;;;;;;;;5126981;27;19911;-48
2021/07/13 12:04:13;;;;;;;;;;;;;;;;;;5120657;27;19957;-48
2021/07/13 12:06:39;;;;;;;;;;;;;;;;;;5113618;27;19912;-46
2021/07/13 12:09:08;;;;;;;;;;;;;;;;;;5107029;28;19918;-49
2021/07/13 12:11:34;;;;;;;;;;;;;;;;;;5127385;27;19976;-49
2021/07/13 12:14:00;;;;;;;;;;;;;;;;;;5120727;27;20418;-47
2021/07/13 12:16:28;;;;;;;;;;;;;;;;;;5118592;27;20363;-47
2021/07/13 12:18:54;;;;;;;;;;;;;;;;;;5133325;27;20408;-47
2021/07/13 12:21:20;;;;;;;;;;;;;;;;;;5117050;27;19911;-48
2021/07/13 12:23:46;;;;;;;;;;;;;;;;;;5112493;28;20270;-47
2021/07/13 12:26:12;;;;;;;;;;;;;;;;;;5112180;28;19916;-48
2021/07/13 12:28:38;;;;;;;;;;;;;;;;;;5111996;28;19907;-49
2021/07/13 12:31:04;;;;;;;;;;;;;;;;;;5112110;28;20339;-49
2021/07/13 12:33:30;;;;;;;;;;;;;;;;;;5112259;28;19912;-48
2021/07/13 12:35:56;;;;;;;;;;;;;;;;;;5128325;27;20101;-50
2021/07/13 12:38:22;;;;;;;;;;;;;;;;;;5111932;27;19912;-49
2021/07/13 12:40:48;;;;;;;;;;;;;;;;;;5116640;27;19919;-48
2021/07/13 12:43:18;;;;;;;;;;;;;;;;;;5124622;27;19908;-49
2021/07/13 12:45:44;;;;;;;;;;;;;;;;;;5125221;27;19950;-48
2021/07/13 12:48:11;;;;;;;;;;;;;;;;;;5112205;28;19904;-48
2021/07/13 12:50:37;;;;;;;;;;;;;;;;;;5112048;28;19919;-49
2021/07/13 12:53:04;;;;;;;;;;;;;;;;;;5112323;28;19927;-48
2021/07/13 12:55:30;;;;;;;;;;;;;;;;;;5113943;27;20023;-48
2021/07/13 12:57:56;;;;;;;;;;;;;;;;;;5132057;27;19943;-49
2021/07/13 13:00:22;;;;;;;;;;;;;;;;;;5122085;27;19944;-44
2021/07/13 13:02:48;;;;;;;;;;;;;;;;;;5122565;27;19962;-47
2021/07/13 13:05:14;;;;;;;;;;;;;;;;;;5121754;27;19915;-48
2021/07/13 13:07:41;;;;;;;;;;;;;;;;;;5132973;27;19908;-46
2021/07/13 13:10:07;;;;;;;;;;;;;;;;;;5115770;27;19977;-52
2021/07/13 13:12:33;;;;;;;;;;;;;;;;;;5111991;28;19912;-47
2021/07/13 13:14:59;;;;;;;;;;;;;;;;;;5111763;28;19982;-50
2021/07/13 13:17:25;;;;;;;;;;;;;;;;;;5112096;28;19916;-54
2021/07/13 13:19:51;;;;;;;;;;;;;;;;;;5130363;27;19953;-47
2021/07/13 13:22:17;;;;;;;;;;;;;;;;;;5122113;27;19907;-46
2021/07/13 13:24:43;;;;;;;;;;;;;;;;;;5112242;28;19908;-48
2021/07/13 13:27:09;;;;;;;;;;;;;;;;;;5112158;28;20010;-49
2021/07/13 13:29:35;;;;;;;;;;;;;;;;;;5111573;28;19908;-49
2021/07/13 13:32:01;;;;;;;;;;;;;;;;;;5111223;28;20319;-51
2021/07/13 13:34:27;;;;;;;;;;;;;;;;;;5117656;27;20331;-50
2021/07/13 13:36:55;;;;;;;;;;;;;;;;;;5121462;27;19912;-49
2021/07/13 13:39:21;;;;;;;;;;;;;;;;;;5130136;27;19915;-46
2021/07/13 13:41:47;;;;;;;;;;;;;;;;;;5122911;27;20324;-49
2021/07/13 13:44:13;;;;;;;;;;;;;;;;;;5111078;28;20006;-50
2021/07/13 13:46:39;;;;;;;;;;;;;;;;;;5110753;28;20298;-47
2021/07/13 13:49:05;;;;;;;;;;;;;;;;;;5110897;28;19925;-48
2021/07/13 13:51:31;;;;;;;;;;;;;;;;;;5111410;28;19943;-47
2021/07/13 13:53:57;;;;;;;;;;;;;;;;;;5114590;27;20012;-50
2021/07/13 13:56:25;;;;;;;;;;;;;;;;;;5111030;28;19927;-50
2021/07/13 13:58:51;;;;;;;;;;;;;;;;;;5117236;27;19908;-50
2021/07/13 14:01:17;;;;;;;;;;;;;;;;;;5127770;27;19911;-47
2021/07/13 14:03:43;;;;;;;;;;;;;;;;;;5126391;27;19908;-48
2021/07/13 14:06:09;;;;;;;;;;;;;;;;;;5127219;27;19907;-54
2021/07/13 14:08:35;;;;;;;;;;;;;;;;;;5113733;27;20811;-47
2021/07/13 14:11:01;;;;;;;;;;;;;;;;;;5110790;28;19953;-54
2021/07/13 14:13:27;;;;;;;;;;;;;;;;;;5128064;27;19987;-49
2021/07/13 14:15:53;;;;;;;;;;;;;;;;;;5118938;27;20328;-47
2021/07/13 14:18:19;;;;;;;;;;;;;;;;;;5115667;27;20371;-52
2021/07/13 14:20:45;;;;;;;;;;;;;;;;;;5119218;27;19924;-50
2021/07/13 14:23:11;;;;;;;;;;;;;;;;;;5110149;28;19907;-47
2021/07/13 14:25:37;;;;;;;;;;;;;;;;;;5110310;28;20253;-46
2021/07/13 14:28:03;;;;;;;;;;;;;;;;;;5109962;28;19908;-46
2021/07/13 14:30:29;;;;;;;;;;;;;;;;;;5109883;28;19959;-47
2021/07/13 14:32:55;;;;;;;;;;;;;;;;;;5111367;27;19959;-50
2021/07/13 14:35:21;;;;;;;;;;;;;;;;;;5137562;27;20299;-45
2021/07/13 14:37:47;;;;;;;;;;;;;;;;;;5113436;27;19908;-47
2021/07/13 14:40:13;;;;;;;;;;;;;;;;;;5130388;27;19918;-46
2021/07/13 14:42:39;;;;;;;;;;;;;;;;;;5097581;27;19908;-46
2021/07/13 14:45:05;;;;;;;;;;;;;;;;;;5130411;27;19911;-43
2021/07/13 14:47:31;;;;;;;;;;;;;;;;;;5113263;27;19915;-46
2021/07/13 14:49:57;;;;;;;;;;;;;;;;;;5109806;28;19912;-49
2021/07/13 14:52:23;;;;;;;;;;;;;;;;;;5109783;28;19964;-51
2021/07/13 14:54:49;;;;;;;;;;;;;;;;;;5109823;28;19955;-53
2021/07/13 14:57:15;;;;;;;;;;;;;;;;;;5109748;28;19979;-50
2021/07/13 14:59:41;;;;;;;;;;;;;;;;;;5122638;27;20281;-51
2021/07/13 15:02:07;;;;;;;;;;;;;;;;;;5109014;28;20252;-46
2021/07/13 15:04:33;;;;;;;;;;;;;;;;;;5116862;27;20049;-48
2021/07/13 15:06:59;;;;;;;;;;;;;;;;;;5109299;28;19908;-48
2021/07/13 15:09:25;;;;;;;;;;;;;;;;;;5109667;28;20302;-50
2021/07/13 15:11:51;;;;;;;;;;;;;;;;;;5109666;28;19908;-51
2021/07/13 15:14:17;;;;;;;;;;;;;;;;;;5119525;28;19930;-47
2021/07/13 15:16:43;;;;;;;;;;;;;;;;;;5126039;28;19924;-46
2021/07/13 15:19:11;;;;;;;;;;;;;;;;;;5122152;28;19964;-46
2021/07/13 15:21:37;;;;;;;;;;;;;;;;;;5112326;28;20301;-44
2021/07/13 15:24:03;;;;;;;;;;;;;;;;;;5109521;28;19961;-46
2021/07/13 15:26:29;;;;;;;;;;;;;;;;;;5109413;28;19908;-45
2021/07/13 15:28:55;;;;;;;;;;;;;;;;;;5108974;28;19908;-46
2021/07/13 15:31:21;;;;;;;;;;;;;;;;;;5108772;28;20363;-43
2021/07/13 15:33:47;;;;;;;;;;;;;;;;;;5109418;28;20339;-43
2021/07/13 15:36:13;;;;;;;;;;;;;;;;;;5129573;27;20332;-42
2021/07/13 15:38:39;;;;;;;;;;;;;;;;;;5132620;27;19976;-44
2021/07/13 15:41:05;;;;;;;;;;;;;;;;;;5130433;27;19949;-44
2021/07/13 15:43:30;;;;;;;;;;;;;;;;;;5113452;28;20256;-43
2021/07/13 15:45:56;;;;;;;;;;;;;;;;;;5113027;28;20033;-46
2021/07/13 15:48:22;;;;;;;;;;;;;;;;;;5117440;27;19943;-47
2021/07/13 15:50:48;;;;;;;;;;;;;;;;;;5116490;27;19997;-49
2021/07/13 15:53:15;;;;;;;;;;;;;;;;;;5116122;27;19949;-46
2021/07/13 15:55:41;;;;;;;;;;;;;;;;;;5127301;27;20057;-46
2021/07/13 15:58:07;;;;;;;;;;;;;;;;;;5117928;27;20387;-46
2021/07/13 16:00:33;;;;;;;;;;;;;;;;;;5101741;27;20367;-46
2021/07/13 16:02:59;;;;;;;;;;;;;;;;;;5119773;27;19999;-46
2021/07/13 16:05:25;;;;;;;;;;;;;;;;;;5126603;27;19958;-47
2021/07/13 16:07:52;;;;;;;;;;;;;;;;;;5132867;27;19912;-45
2021/07/13 16:10:18;;;;;;;;;;;;;;;;;;5127356;27;19976;-45
2021/07/13 16:12:44;;;;;;;;;;;;;;;;;;5125414;27;19907;-48
2021/07/13 16:15:10;;;;;;;;;;;;;;;;;;5112120;27;20295;-47
2021/07/13 16:17:36;;;;;;;;;;;;;;;;;;5111735;28;19924;-47
2021/07/13 16:20:02;;;;;;;;;;;;;;;;;;5112534;28;19915;-44
2021/07/13 16:22:28;;;;;;;;;;;;;;;;;;5111710;28;20670;-47
2021/07/13 16:24:54;;;;;;;;;;;;;;;;;;5112237;27;20113;-48
2021/07/13 16:27:25;;;;;;;;;;;;;;;;;;5122885;27;19990;-51
2021/07/13 16:29:51;;;;;;;;;;;;;;;;;;5107331;28;19912;-52
2021/07/13 16:32:17;;;;;;;;;;;;;;;;;;5111547;27;19980;-52
2021/07/13 16:34:43;;;;;;;;;;;;;;;;;;5107780;28;19971;-48
2021/07/13 16:37:10;;;;;;;;;;;;;;;;;;5093416;28;20265;-49
2021/07/13 16:39:36;;;;;;;;;;;;;;;;;;5109217;28;19953;-47
2021/07/13 16:42:04;;;;;;;;;;;;;;;;;;5093975;28;19999;-48
2021/07/13 16:44:30;;;;;;;;;;;;;;;;;;5091865;28;19927;-50
2021/07/13 16:46:56;;;;;;;;;;;;;;;;;;5091916;28;19935;-51
2021/07/13 16:49:22;;;;;;;;;;;;;;;;;;5110964;28;19907;-49
2021/07/13 16:51:48;;;;;;;;;;;;;;;;;;5074620;28;20347;-51
2021/07/13 16:54:14;;;;;;;;;;;;;;;;;;5092588;28;19919;-50
2021/07/13 16:56:40;;;;;;;;;;;;;;;;;;5091820;28;19955;-48
2021/07/13 16:59:06;;;;;;;;;;;;;;;;;;5104376;28;19939;-49
2021/07/13 17:01:32;;;;;;;;;;;;;;;;;;5111683;28;19960;-47
2021/07/13 17:03:58;;;;;;;;;;;;;;;;;;5109413;27;19926;-51
2021/07/13 17:06:24;;;;;;;;;;;;;;;;;;5107846;28;19939;-51
2021/07/13 17:08:50;;;;;;;;;;;;;;;;;;5106234;28;20066;-49
2021/07/13 17:11:16;;;;;;;;;;;;;;;;;;5092321;28;20328;-49
2021/07/13 17:13:42;;;;;;;;;;;;;;;;;;5097865;28;20094;-49
2021/07/13 17:16:08;;;;;;;;;;;;;;;;;;5117242;27;19967;-49
2021/07/13 17:18:34;;;;;;;;;;;;;;;;;;5125733;27;19918;-51
2021/07/13 17:20:59;;;;;;;;;;;;;;;;;;5106664;28;19923;-48
2021/07/13 17:23:26;;;;;;;;;;;;;;;;;;5112876;27;19912;-49
2021/07/13 17:25:52;;;;;;;;;;;;;;;;;;5119827;27;19911;-51
2021/07/13 17:28:17;;;;;;;;;;;;;;;;;;5119286;27;19985;-49
2021/07/13 17:30:43;;;;;;;;;;;;;;;;;;5131220;27;19934;-49
2021/07/13 17:33:14;;;;;;;;;;;;;;;;;;5132309;27;19926;-54
2021/07/13 17:35:42;;;;;;;;;;;;;;;;;;5117986;27;19916;-50
2021/07/13 17:38:09;;;;;;;;;;;;;;;;;;5111610;28;19930;-48
2021/07/13 17:40:35;;;;;;;;;;;;;;;;;;5121098;27;19926;-52
2021/07/13 17:43:01;;;;;;;;;;;;;;;;;;5129977;27;19973;-52
2021/07/13 17:45:27;;;;;;;;;;;;;;;;;;5123102;27;19908;-50
2021/07/13 17:47:53;;;;;;;;;;;;;;;;;;5127420;27;20274;-48
2021/07/13 17:50:19;;;;;;;;;;;;;;;;;;5120639;27;19933;-49
2021/07/13 17:52:45;;;;;;;;;;;;;;;;;;5128077;27;19912;-48
2021/07/13 17:55:11;;;;;;;;;;;;;;;;;;5110727;28;19955;-50
2021/07/13 17:57:37;;;;;;;;;;;;;;;;;;5110969;28;20414;-50
2021/07/13 18:00:03;;;;;;;;;;;;;;;;;;5122448;27;20022;-48
2021/07/13 18:02:28;;;;;;;;;;;;;;;;;;5115245;27;19919;-48
2021/07/13 18:04:57;;;;;;;;;;;;;;;;;;5125221;27;20343;-50
2021/07/13 18:07:23;;;;;;;;;;;;;;;;;;5112309;27;20002;-47
2021/07/13 18:09:49;;;;;;;;;;;;;;;;;;5110697;28;20394;-47
2021/07/13 18:12:14;;;;;;;;;;;;;;;;;;5124479;27;19912;-51
2021/07/13 18:14:40;;;;;;;;;;;;;;;;;;5110536;28;19918;-50
2021/07/13 18:17:07;;;;;;;;;;;;;;;;;;5119563;27;19979;-52
2021/07/13 18:19:33;;;;;;;;;;;;;;;;;;5125871;27;19908;-50
2021/07/13 18:21:59;;;;;;;;;;;;;;;;;;5130787;27;19912;-49
2021/07/13 18:24:27;;;;;;;;;;;;;;;;;;5126947;27;20036;-51
2021/07/13 18:26:53;;;;;;;;;;;;;;;;;;5125754;27;19919;-49
2021/07/13 18:29:19;;;;;;;;;;;;;;;;;;5123297;27;19918;-48
2021/07/13 18:31:45;;;;;;;;;;;;;;;;;;5124146;27;20243;-48
2021/07/13 18:34:12;;;;;;;;;;;;;;;;;;5115907;27;19915;-49
2021/07/13 18:36:38;;;;;;;;;;;;;;;;;;5128274;27;19989;-57
2021/07/13 18:39:04;;;;;;;;;;;;;;;;;;5117186;27;19912;-46
2021/07/13 22:22:17;;;;;;;;;;;;;;;;;;5152205;22;19951;-50
2021/07/13 22:24:43;;;;;;;;;;;;;;;;;;5047910;28;19913;-45
2021/07/13 22:27:09;;;;;;;;;;;;;;;;;;5042621;28;19955;-50
2021/07/13 22:29:35;;;;;;;;;;;;;;;;;;5048858;28;19960;-48
2021/07/13 22:32:01;;;;;;;;;;;;;;;;;;5032852;28;19909;-46
2021/07/13 22:34:27;;;;;;;;;;;;;;;;;;5031038;28;21100;-48
2021/07/13 22:36:53;;;;;;;;;;;;;;;;;;5047145;28;19921;-46
2021/07/13 22:39:19;;;;;;;;;;;;;;;;;;5049518;28;20084;-42
2021/07/13 22:41:45;;;;;;;;;;;;;;;;;;5038272;28;19921;-43
2021/07/13 22:44:11;;;;;;;;;;;;;;;;;;5047220;28;19909;-45
2021/07/13 22:46:37;;;;;;;;;;;;;;;;;;5043959;28;19909;-42
2021/07/13 22:49:03;;;;;;;;;;;;;;;;;;5029933;28;19916;-45
2021/07/13 22:51:29;;;;;;;;;;;;;;;;;;5033346;28;19908;-45
